createdAt,value
2019-02-28T00:02:07.959Z,52.0
2019-02-28T00:12:22.199Z,51.9
2019-02-28T00:22:36.440Z,52.2
2019-02-28T00:32:50.790Z,52.2
2019-02-28T00:43:04.973Z,52.2
2019-02-28T00:53:19.320Z,52.3
2019-02-28T01:03:33.313Z,52.0
2019-02-28T01:13:47.426Z,51.9
2019-02-28T01:24:01.773Z,52.0
2019-02-28T01:34:13.170Z,51.7
2019-02-28T01:44:27.404Z,52.5
2019-02-28T01:55:12.758Z,53.1
2019-02-28T02:05:59.631Z,52.4
2019-02-28T02:17:40.123Z,52.3
2019-02-28T02:28:02.022Z,53.4
2019-02-28T02:40:00.597Z,53.2
2019-02-28T02:51:19.546Z,52.4
2019-02-28T03:01:56.090Z,52.2
2019-02-28T03:12:07.015Z,52.2
2019-02-28T03:22:41.697Z,53.9
2019-02-28T03:33:25.143Z,53.9
2019-02-28T03:43:55.389Z,55.8
2019-02-28T03:55:04.663Z,55.4
2019-02-28T04:05:28.800Z,55.4
2019-02-28T04:16:15.805Z,55.6
2019-02-28T04:27:11.394Z,54.5
2019-02-28T04:37:56.562Z,54.4
2019-02-28T04:48:13.375Z,54.4
2019-02-28T04:58:49.676Z,56.0
2019-02-28T05:09:03.513Z,55.9
2019-02-28T05:19:35.677Z,56.6
2019-02-28T05:29:44.797Z,56.9
2019-02-28T05:39:56.346Z,58.2
2019-02-28T05:50:44.051Z,57.3
2019-02-28T06:00:58.199Z,56.9
2019-02-28T06:11:44.997Z,57.5
2019-02-28T06:21:59.390Z,57.5
2019-02-28T06:32:09.765Z,56.8
2019-02-28T06:42:20.790Z,56.1
2019-02-28T06:52:32.093Z,55.9
2019-02-28T07:03:17.131Z,56.2
2019-02-28T07:13:28.376Z,56.2
2019-02-28T07:23:42.693Z,57.3
2019-02-28T07:33:53.898Z,59.1
2019-02-28T07:44:08.528Z,58.5
2019-02-28T07:54:55.817Z,60.8
2019-02-28T08:05:06.691Z,62.2
2019-02-28T08:15:21.414Z,60.4
2019-02-28T08:25:29.611Z,58.6
2019-02-28T08:35:40.982Z,56.8
2019-02-28T08:45:55.283Z,55.9
2019-02-28T08:56:06.982Z,56.9
2019-02-28T09:06:20.812Z,55.7
2019-02-28T09:16:36.716Z,55.4
2019-02-28T09:26:46.340Z,54.8
2019-02-28T09:37:00.267Z,53.9
2019-02-28T09:47:45.762Z,54.5
2019-02-28T09:58:44.095Z,54.8
2019-02-28T10:08:59.476Z,54.3
2019-02-28T10:19:15.469Z,54.5
2019-02-28T10:30:30.548Z,54.7
2019-02-28T10:40:33.557Z,55.1
2019-02-28T10:50:47.515Z,55.0
2019-02-28T11:01:00.888Z,54.4
2019-02-28T11:11:20.187Z,53.7
2019-02-28T11:22:21.274Z,53.4
2019-02-28T11:32:35.388Z,52.4
2019-02-28T11:42:49.394Z,52.9
2019-02-28T11:53:39.335Z,51.2
2019-02-28T12:03:46.472Z,49.9
2019-02-28T12:14:36.134Z,49.7
2019-02-28T12:24:50.424Z,49.8
2019-02-28T12:35:10.886Z,50.2
2019-02-28T12:45:25.246Z,50.7
2019-02-28T12:55:38.710Z,50.1
2019-02-28T13:05:54.712Z,49.9
2019-02-28T13:16:08.976Z,50.1
2019-02-28T13:26:23.380Z,50.1
2019-02-28T13:36:34.395Z,50.0
2019-02-28T13:46:45.637Z,50.7
2019-02-28T13:56:59.035Z,50.8
2019-02-28T14:07:13.335Z,50.9
2019-02-28T14:17:25.094Z,51.3
2019-02-28T14:27:36.850Z,51.9
2019-02-28T14:38:21.525Z,52.1
2019-02-28T14:48:36.525Z,51.6
2019-02-28T14:58:46.172Z,51.6
2019-02-28T15:10:53.177Z,51.7
2019-02-28T15:21:04.413Z,51.5
2019-02-28T15:31:49.539Z,51.7
2019-02-28T15:42:35.182Z,51.7
2019-02-28T15:52:49.516Z,52.2
2019-02-28T16:03:03.571Z,53.0
2019-02-28T16:13:51.385Z,54.2
2019-02-28T16:24:39.711Z,54.2
2019-02-28T16:35:39.610Z,55.1
2019-02-28T16:45:53.498Z,55.1
2019-02-28T16:56:26.293Z,55.1
2019-02-28T17:06:39.741Z,55.5
2019-02-28T17:16:54.058Z,55.8
2019-02-28T17:27:47.187Z,55.9
2019-02-28T17:38:37.080Z,56.3
2019-02-28T17:48:45.379Z,56.4
2019-02-28T17:58:55.388Z,56.6
2019-02-28T18:09:09.633Z,56.8
2019-02-28T18:19:21.588Z,56.6
2019-02-28T18:29:35.333Z,57.2
2019-02-28T18:39:49.327Z,57.3
2019-02-28T18:50:40.255Z,57.2
2019-02-28T19:21:28.691Z,59.9
2019-02-28T19:31:48.340Z,59.7
2019-02-28T19:42:43.623Z,59.8
2019-02-28T20:17:38.314Z,59.8
2019-02-28T20:46:49.193Z,59.4
2019-02-28T20:57:36.253Z,59.8
2019-02-28T21:07:49.921Z,59.9
2019-02-28T21:18:04.424Z,59.7
2019-02-28T21:28:18.306Z,59.6
2019-02-28T21:38:32.603Z,59.4
2019-02-28T21:49:02.471Z,60.0
2019-02-28T21:59:16.151Z,60.8
2019-02-28T22:09:30.513Z,60.9
2019-02-28T22:20:21.863Z,61.3
2019-02-28T22:30:36.103Z,62.4
2019-02-28T22:41:25.668Z,65.0
2019-02-28T22:51:40.356Z,63.5
2019-02-28T23:01:51.477Z,63.1
2019-02-28T23:12:05.676Z,63.4
2019-02-28T23:23:16.602Z,62.8
2019-02-28T23:33:33.034Z,63.2
2019-02-28T23:43:46.644Z,64.3
2019-02-28T23:54:00.569Z,64.4
